sensor_id;sensor_type;location;lat;lon;timestamp;pressure;altitude;pressure_sealevel;temperature
8362;BMP180;4218;48.326;14.304;2022-11-30T00:00:35;98698.00;;;0.50
8362;BMP180;4218;48.326;14.304;2022-11-30T00:03:01;98705.00;;;0.60
8362;BMP180;4218;48.326;14.304;2022-11-30T00:05:26;98709.00;;;0.50
8362;BMP180;4218;48.326;14.304;2022-11-30T00:07:51;98699.00;;;0.60
8362;BMP180;4218;48.326;14.304;2022-11-30T00:10:19;98682.00;;;0.60
8362;BMP180;4218;48.326;14.304;2022-11-30T00:12:45;98691.00;;;0.70
8362;BMP180;4218;48.326;14.304;2022-11-30T00:15:12;98689.00;;;0.70
8362;BMP180;4218;48.326;14.304;2022-11-30T00:17:41;98692.00;;;0.80
8362;BMP180;4218;48.326;14.304;2022-11-30T00:20:08;98687.00;;;0.80
8362;BMP180;4218;48.326;14.304;2022-11-30T00:22:33;98675.00;;;0.70
8362;BMP180;4218;48.326;14.304;2022-11-30T00:24:59;98682.00;;;0.70
8362;BMP180;4218;48.326;14.304;2022-11-30T00:27:26;98683.00;;;0.70
8362;BMP180;4218;48.326;14.304;2022-11-30T00:29:51;98680.00;;;0.70
8362;BMP180;4218;48.326;14.304;2022-11-30T00:32:17;98674.00;;;0.80
8362;BMP180;4218;48.326;14.304;2022-11-30T00:34:42;98678.00;;;0.80
8362;BMP180;4218;48.326;14.304;2022-11-30T00:37:08;98682.00;;;0.70
8362;BMP180;4218;48.326;14.304;2022-11-30T00:39:33;98689.00;;;0.70
8362;BMP180;4218;48.326;14.304;2022-11-30T00:41:58;98665.00;;;0.70
8362;BMP180;4218;48.326;14.304;2022-11-30T00:44:24;98675.00;;;0.70
8362;BMP180;4218;48.326;14.304;2022-11-30T00:46:49;98679.00;;;0.70
8362;BMP180;4218;48.326;14.304;2022-11-30T00:49:14;98693.00;;;0.70
8362;BMP180;4218;48.326;14.304;2022-11-30T00:51:40;98680.00;;;0.60
8362;BMP180;4218;48.326;14.304;2022-11-30T00:54:05;98686.00;;;0.70
8362;BMP180;4218;48.326;14.304;2022-11-30T00:56:30;98683.00;;;0.70
8362;BMP180;4218;48.326;14.304;2022-11-30T00:58:56;98700.00;;;0.70
8362;BMP180;4218;48.326;14.304;2022-11-30T01:01:21;98705.00;;;0.70
8362;BMP180;4218;48.326;14.304;2022-11-30T01:03:46;98701.00;;;0.70
8362;BMP180;4218;48.326;14.304;2022-11-30T01:06:12;98701.00;;;0.70
8362;BMP180;4218;48.326;14.304;2022-11-30T01:08:38;98692.00;;;0.70
8362;BMP180;4218;48.326;14.304;2022-11-30T01:11:32;98705.00;;;0.60
8362;BMP180;4218;48.326;14.304;2022-11-30T01:13:59;98703.00;;;0.70
8362;BMP180;4218;48.326;14.304;2022-11-30T01:16:26;98704.00;;;0.70
8362;BMP180;4218;48.326;14.304;2022-11-30T01:18:52;98712.00;;;0.80
8362;BMP180;4218;48.326;14.304;2022-11-30T01:21:20;98711.00;;;0.70
8362;BMP180;4218;48.326;14.304;2022-11-30T01:23:47;98718.00;;;0.70
8362;BMP180;4218;48.326;14.304;2022-11-30T01:26:13;98716.00;;;0.70
8362;BMP180;4218;48.326;14.304;2022-11-30T01:28:38;98721.00;;;0.80
8362;BMP180;4218;48.326;14.304;2022-11-30T01:31:07;98728.00;;;0.80
8362;BMP180;4218;48.326;14.304;2022-11-30T01:33:33;98715.00;;;0.60
8362;BMP180;4218;48.326;14.304;2022-11-30T01:35:59;98722.00;;;0.60
8362;BMP180;4218;48.326;14.304;2022-11-30T01:38:26;98710.00;;;0.70
8362;BMP180;4218;48.326;14.304;2022-11-30T01:40:51;98724.00;;;0.70
8362;BMP180;4218;48.326;14.304;2022-11-30T01:43:18;98732.00;;;0.70
8362;BMP180;4218;48.326;14.304;2022-11-30T01:45:47;98719.00;;;0.60
8362;BMP180;4218;48.326;14.304;2022-11-30T01:48:13;98707.00;;;0.70
8362;BMP180;4218;48.326;14.304;2022-11-30T01:50:38;98710.00;;;0.60
8362;BMP180;4218;48.326;14.304;2022-11-30T01:53:06;98710.00;;;0.30
8362;BMP180;4218;48.326;14.304;2022-11-30T01:55:37;98710.00;;;0.30
8362;BMP180;4218;48.326;14.304;2022-11-30T01:58:14;98716.00;;;0.30
8362;BMP180;4218;48.326;14.304;2022-11-30T02:00:43;98716.00;;;0.10
8362;BMP180;4218;48.326;14.304;2022-11-30T02:03:18;98708.00;;;0.20
8362;BMP180;4218;48.326;14.304;2022-11-30T02:05:45;98710.00;;;0.20
8362;BMP180;4218;48.326;14.304;2022-11-30T02:08:11;98719.00;;;0.30
8362;BMP180;4218;48.326;14.304;2022-11-30T02:10:42;98716.00;;;0.20
8362;BMP180;4218;48.326;14.304;2022-11-30T02:18:59;98722.00;;;-0.10
8362;BMP180;4218;48.326;14.304;2022-11-30T02:21:40;98720.00;;;-0.30
8362;BMP180;4218;48.326;14.304;2022-11-30T02:24:22;98705.00;;;-0.40
8362;BMP180;4218;48.326;14.304;2022-11-30T02:27:16;98705.00;;;-0.40
8362;BMP180;4218;48.326;14.304;2022-11-30T02:29:46;98712.00;;;-0.30
8362;BMP180;4218;48.326;14.304;2022-11-30T02:32:21;98718.00;;;-0.20
8362;BMP180;4218;48.326;14.304;2022-11-30T02:34:48;98703.00;;;-0.30
8362;BMP180;4218;48.326;14.304;2022-11-30T02:37:14;98715.00;;;-0.20
8362;BMP180;4218;48.326;14.304;2022-11-30T02:39:41;98711.00;;;-0.20
8362;BMP180;4218;48.326;14.304;2022-11-30T02:42:12;98713.00;;;-0.30
8362;BMP180;4218;48.326;14.304;2022-11-30T02:44:47;98704.00;;;-0.40
8362;BMP180;4218;48.326;14.304;2022-11-30T02:47:19;98705.00;;;-0.30
8362;BMP180;4218;48.326;14.304;2022-11-30T02:52:25;98692.00;;;-0.10
8362;BMP180;4218;48.326;14.304;2022-11-30T02:55:02;98693.00;;;0.00
8362;BMP180;4218;48.326;14.304;2022-11-30T02:57:28;98707.00;;;0.00
8362;BMP180;4218;48.326;14.304;2022-11-30T02:59:54;98697.00;;;0.00
8362;BMP180;4218;48.326;14.304;2022-11-30T03:02:19;98704.00;;;0.00
8362;BMP180;4218;48.326;14.304;2022-11-30T03:04:45;98703.00;;;0.10
8362;BMP180;4218;48.326;14.304;2022-11-30T03:07:10;98703.00;;;0.10
8362;BMP180;4218;48.326;14.304;2022-11-30T03:09:35;98701.00;;;0.10
8362;BMP180;4218;48.326;14.304;2022-11-30T03:12:01;98710.00;;;0.10
8362;BMP180;4218;48.326;14.304;2022-11-30T03:14:26;98712.00;;;0.20
8362;BMP180;4218;48.326;14.304;2022-11-30T03:16:52;98709.00;;;0.20
8362;BMP180;4218;48.326;14.304;2022-11-30T03:19:17;98702.00;;;0.30
8362;BMP180;4218;48.326;14.304;2022-11-30T03:21:42;98705.00;;;0.20
8362;BMP180;4218;48.326;14.304;2022-11-30T03:24:08;98703.00;;;0.10
8362;BMP180;4218;48.326;14.304;2022-11-30T03:26:33;98701.00;;;0.10
8362;BMP180;4218;48.326;14.304;2022-11-30T03:28:59;98720.00;;;0.10
8362;BMP180;4218;48.326;14.304;2022-11-30T03:31:24;98708.00;;;0.20
8362;BMP180;4218;48.326;14.304;2022-11-30T03:33:49;98710.00;;;0.10
8362;BMP180;4218;48.326;14.304;2022-11-30T03:36:15;98714.00;;;0.10
8362;BMP180;4218;48.326;14.304;2022-11-30T03:38:40;98715.00;;;0.20
8362;BMP180;4218;48.326;14.304;2022-11-30T03:41:08;98717.00;;;0.20
8362;BMP180;4218;48.326;14.304;2022-11-30T03:43:34;98727.00;;;0.20
8362;BMP180;4218;48.326;14.304;2022-11-30T03:46:00;98729.00;;;0.10
8362;BMP180;4218;48.326;14.304;2022-11-30T03:48:25;98708.00;;;0.10
8362;BMP180;4218;48.326;14.304;2022-11-30T03:50:51;98714.00;;;0.10
8362;BMP180;4218;48.326;14.304;2022-11-30T03:53:17;98712.00;;;0.00
8362;BMP180;4218;48.326;14.304;2022-11-30T03:55:43;98714.00;;;0.00
8362;BMP180;4218;48.326;14.304;2022-11-30T03:58:08;98715.00;;;0.00
8362;BMP180;4218;48.326;14.304;2022-11-30T04:00:34;98725.00;;;0.10
8362;BMP180;4218;48.326;14.304;2022-11-30T04:02:59;98720.00;;;0.10
8362;BMP180;4218;48.326;14.304;2022-11-30T04:05:25;98735.00;;;0.00
8362;BMP180;4218;48.326;14.304;2022-11-30T04:07:50;98734.00;;;-0.10
8362;BMP180;4218;48.326;14.304;2022-11-30T04:10:15;98736.00;;;0.00
8362;BMP180;4218;48.326;14.304;2022-11-30T04:12:41;98744.00;;;-0.10
8362;BMP180;4218;48.326;14.304;2022-11-30T04:15:07;98728.00;;;0.00
8362;BMP180;4218;48.326;14.304;2022-11-30T04:17:32;98741.00;;;0.00
8362;BMP180;4218;48.326;14.304;2022-11-30T04:19:57;98729.00;;;-0.20
8362;BMP180;4218;48.326;14.304;2022-11-30T04:22:23;98726.00;;;-0.30
8362;BMP180;4218;48.326;14.304;2022-11-30T04:24:48;98738.00;;;-0.40
8362;BMP180;4218;48.326;14.304;2022-11-30T04:27:13;98738.00;;;-0.40
8362;BMP180;4218;48.326;14.304;2022-11-30T04:29:39;98725.00;;;-0.30
8362;BMP180;4218;48.326;14.304;2022-11-30T04:32:04;98736.00;;;-0.30
8362;BMP180;4218;48.326;14.304;2022-11-30T04:34:30;98741.00;;;-0.20
8362;BMP180;4218;48.326;14.304;2022-11-30T04:36:55;98743.00;;;-0.10
8362;BMP180;4218;48.326;14.304;2022-11-30T04:39:21;98731.00;;;-0.20
8362;BMP180;4218;48.326;14.304;2022-11-30T04:41:46;98761.00;;;-0.20
8362;BMP180;4218;48.326;14.304;2022-11-30T04:44:12;98748.00;;;-0.10
8362;BMP180;4218;48.326;14.304;2022-11-30T04:46:37;98758.00;;;-0.10
8362;BMP180;4218;48.326;14.304;2022-11-30T04:49:02;98747.00;;;-0.10
8362;BMP180;4218;48.326;14.304;2022-11-30T04:51:28;98752.00;;;-0.10
8362;BMP180;4218;48.326;14.304;2022-11-30T04:53:53;98750.00;;;-0.10
8362;BMP180;4218;48.326;14.304;2022-11-30T04:56:18;98749.00;;;-0.10
8362;BMP180;4218;48.326;14.304;2022-11-30T04:58:44;98735.00;;;0.00
8362;BMP180;4218;48.326;14.304;2022-11-30T05:01:09;98747.00;;;0.00
8362;BMP180;4218;48.326;14.304;2022-11-30T05:03:34;98751.00;;;0.10
8362;BMP180;4218;48.326;14.304;2022-11-30T05:06:01;98753.00;;;0.10
8362;BMP180;4218;48.326;14.304;2022-11-30T05:08:26;98766.00;;;0.00
8362;BMP180;4218;48.326;14.304;2022-11-30T05:10:53;98764.00;;;-0.10
8362;BMP180;4218;48.326;14.304;2022-11-30T05:13:19;98764.00;;;0.00
8362;BMP180;4218;48.326;14.304;2022-11-30T05:15:45;98764.00;;;0.00
8362;BMP180;4218;48.326;14.304;2022-11-30T05:18:11;98777.00;;;0.00
8362;BMP180;4218;48.326;14.304;2022-11-30T05:20:36;98765.00;;;0.00
8362;BMP180;4218;48.326;14.304;2022-11-30T05:23:01;98770.00;;;0.00
8362;BMP180;4218;48.326;14.304;2022-11-30T05:25:27;98765.00;;;0.10
8362;BMP180;4218;48.326;14.304;2022-11-30T05:27:52;98777.00;;;0.00
8362;BMP180;4218;48.326;14.304;2022-11-30T05:30:18;98773.00;;;0.10
8362;BMP180;4218;48.326;14.304;2022-11-30T05:32:43;98777.00;;;0.00
8362;BMP180;4218;48.326;14.304;2022-11-30T05:35:08;98769.00;;;0.10
8362;BMP180;4218;48.326;14.304;2022-11-30T05:37:34;98784.00;;;0.20
8362;BMP180;4218;48.326;14.304;2022-11-30T05:40:00;98787.00;;;0.10
8362;BMP180;4218;48.326;14.304;2022-11-30T05:42:25;98791.00;;;0.10
8362;BMP180;4218;48.326;14.304;2022-11-30T05:44:52;98774.00;;;0.10
8362;BMP180;4218;48.326;14.304;2022-11-30T05:47:17;98777.00;;;0.00
8362;BMP180;4218;48.326;14.304;2022-11-30T05:49:43;98792.00;;;0.00
8362;BMP180;4218;48.326;14.304;2022-11-30T05:52:08;98795.00;;;0.00
8362;BMP180;4218;48.326;14.304;2022-11-30T05:54:34;98792.00;;;-0.10
8362;BMP180;4218;48.326;14.304;2022-11-30T05:56:59;98798.00;;;-0.10
8362;BMP180;4218;48.326;14.304;2022-11-30T05:59:25;98791.00;;;0.00
8362;BMP180;4218;48.326;14.304;2022-11-30T06:01:51;98794.00;;;0.00
8362;BMP180;4218;48.326;14.304;2022-11-30T06:04:16;98799.00;;;0.00
8362;BMP180;4218;48.326;14.304;2022-11-30T06:06:42;98800.00;;;0.00
8362;BMP180;4218;48.326;14.304;2022-11-30T06:09:07;98808.00;;;-0.10
8362;BMP180;4218;48.326;14.304;2022-11-30T06:11:33;98799.00;;;0.10
8362;BMP180;4218;48.326;14.304;2022-11-30T06:13:58;98800.00;;;0.10
8362;BMP180;4218;48.326;14.304;2022-11-30T06:16:23;98811.00;;;0.20
8362;BMP180;4218;48.326;14.304;2022-11-30T06:18:49;98798.00;;;0.20
8362;BMP180;4218;48.326;14.304;2022-11-30T06:21:14;98804.00;;;0.10
8362;BMP180;4218;48.326;14.304;2022-11-30T06:23:40;98814.00;;;0.30
8362;BMP180;4218;48.326;14.304;2022-11-30T06:26:08;98817.00;;;0.40
8362;BMP180;4218;48.326;14.304;2022-11-30T06:28:34;98802.00;;;0.40
8362;BMP180;4218;48.326;14.304;2022-11-30T06:31:00;98807.00;;;0.40
8362;BMP180;4218;48.326;14.304;2022-11-30T06:33:26;98815.00;;;0.50
8362;BMP180;4218;48.326;14.304;2022-11-30T06:35:51;98804.00;;;0.60
8362;BMP180;4218;48.326;14.304;2022-11-30T06:38:17;98811.00;;;0.60
8362;BMP180;4218;48.326;14.304;2022-11-30T06:40:43;98815.00;;;0.70
8362;BMP180;4218;48.326;14.304;2022-11-30T06:43:08;98804.00;;;0.70
8362;BMP180;4218;48.326;14.304;2022-11-30T06:45:33;98825.00;;;0.70
8362;BMP180;4218;48.326;14.304;2022-11-30T06:47:59;98812.00;;;0.80
8362;BMP180;4218;48.326;14.304;2022-11-30T06:50:24;98823.00;;;0.80
8362;BMP180;4218;48.326;14.304;2022-11-30T06:52:49;98818.00;;;1.00
8362;BMP180;4218;48.326;14.304;2022-11-30T06:55:15;98813.00;;;1.00
8362;BMP180;4218;48.326;14.304;2022-11-30T06:57:40;98828.00;;;1.10
8362;BMP180;4218;48.326;14.304;2022-11-30T07:00:06;98828.00;;;1.20
8362;BMP180;4218;48.326;14.304;2022-11-30T07:02:32;98821.00;;;1.40
8362;BMP180;4218;48.326;14.304;2022-11-30T07:04:57;98832.00;;;1.40
8362;BMP180;4218;48.326;14.304;2022-11-30T07:07:23;98834.00;;;1.40
8362;BMP180;4218;48.326;14.304;2022-11-30T07:09:49;98829.00;;;1.50
8362;BMP180;4218;48.326;14.304;2022-11-30T07:12:15;98832.00;;;1.60
8362;BMP180;4218;48.326;14.304;2022-11-30T07:14:41;98836.00;;;1.60
8362;BMP180;4218;48.326;14.304;2022-11-30T07:17:06;98836.00;;;1.70
8362;BMP180;4218;48.326;14.304;2022-11-30T07:19:32;98832.00;;;1.70
8362;BMP180;4218;48.326;14.304;2022-11-30T07:22:00;98828.00;;;1.80
8362;BMP180;4218;48.326;14.304;2022-11-30T07:24:26;98830.00;;;1.60
8362;BMP180;4218;48.326;14.304;2022-11-30T07:27:10;98847.00;;;1.80
8362;BMP180;4218;48.326;14.304;2022-11-30T07:29:35;98835.00;;;1.70
8362;BMP180;4218;48.326;14.304;2022-11-30T07:32:01;98831.00;;;1.80
8362;BMP180;4218;48.326;14.304;2022-11-30T07:34:26;98829.00;;;1.80
8362;BMP180;4218;48.326;14.304;2022-11-30T07:36:51;98839.00;;;1.70
8362;BMP180;4218;48.326;14.304;2022-11-30T07:39:17;98833.00;;;1.60
8362;BMP180;4218;48.326;14.304;2022-11-30T07:41:43;98839.00;;;1.80
8362;BMP180;4218;48.326;14.304;2022-11-30T07:44:09;98842.00;;;1.90
8362;BMP180;4218;48.326;14.304;2022-11-30T07:46:36;98838.00;;;1.80
8362;BMP180;4218;48.326;14.304;2022-11-30T07:49:03;98850.00;;;1.80
8362;BMP180;4218;48.326;14.304;2022-11-30T07:51:29;98844.00;;;1.80
8362;BMP180;4218;48.326;14.304;2022-11-30T07:53:55;98847.00;;;1.80
8362;BMP180;4218;48.326;14.304;2022-11-30T07:56:21;98844.00;;;1.90
8362;BMP180;4218;48.326;14.304;2022-11-30T07:58:47;98855.00;;;2.00
8362;BMP180;4218;48.326;14.304;2022-11-30T08:01:15;98866.00;;;1.80
8362;BMP180;4218;48.326;14.304;2022-11-30T08:03:41;98858.00;;;2.10
8362;BMP180;4218;48.326;14.304;2022-11-30T08:06:12;98857.00;;;2.00
8362;BMP180;4218;48.326;14.304;2022-11-30T08:08:40;98863.00;;;2.00
8362;BMP180;4218;48.326;14.304;2022-11-30T08:11:07;98868.00;;;2.10
8362;BMP180;4218;48.326;14.304;2022-11-30T08:13:33;98867.00;;;2.20
8362;BMP180;4218;48.326;14.304;2022-11-30T08:16:04;98871.00;;;2.10
8362;BMP180;4218;48.326;14.304;2022-11-30T08:18:29;98876.00;;;2.10
8362;BMP180;4218;48.326;14.304;2022-11-30T08:20:59;98878.00;;;2.10
8362;BMP180;4218;48.326;14.304;2022-11-30T08:23:36;98873.00;;;2.10
8362;BMP180;4218;48.326;14.304;2022-11-30T08:26:07;98881.00;;;2.10
8362;BMP180;4218;48.326;14.304;2022-11-30T08:28:33;98864.00;;;2.10
8362;BMP180;4218;48.326;14.304;2022-11-30T08:31:04;98882.00;;;2.00
8362;BMP180;4218;48.326;14.304;2022-11-30T08:33:30;98888.00;;;1.90
8362;BMP180;4218;48.326;14.304;2022-11-30T08:38:33;98882.00;;;1.90
8362;BMP180;4218;48.326;14.304;2022-11-30T08:40:58;98875.00;;;1.90
8362;BMP180;4218;48.326;14.304;2022-11-30T08:43:24;98879.00;;;2.10
8362;BMP180;4218;48.326;14.304;2022-11-30T08:45:49;98875.00;;;2.00
8362;BMP180;4218;48.326;14.304;2022-11-30T08:48:15;98876.00;;;2.00
8362;BMP180;4218;48.326;14.304;2022-11-30T08:50:40;98889.00;;;2.20
8362;BMP180;4218;48.326;14.304;2022-11-30T08:53:06;98883.00;;;2.20
8362;BMP180;4218;48.326;14.304;2022-11-30T08:55:31;98899.00;;;2.20
8362;BMP180;4218;48.326;14.304;2022-11-30T08:57:57;98891.00;;;2.10
8362;BMP180;4218;48.326;14.304;2022-11-30T09:00:22;98895.00;;;2.30
8362;BMP180;4218;48.326;14.304;2022-11-30T09:02:48;98911.00;;;2.30
8362;BMP180;4218;48.326;14.304;2022-11-30T09:05:13;98903.00;;;2.30
8362;BMP180;4218;48.326;14.304;2022-11-30T09:07:39;98885.00;;;2.40
8362;BMP180;4218;48.326;14.304;2022-11-30T09:10:04;98905.00;;;2.40
8362;BMP180;4218;48.326;14.304;2022-11-30T09:12:33;98898.00;;;2.50
8362;BMP180;4218;48.326;14.304;2022-11-30T09:14:59;98884.00;;;2.60
8362;BMP180;4218;48.326;14.304;2022-11-30T09:17:24;98905.00;;;2.60
8362;BMP180;4218;48.326;14.304;2022-11-30T09:19:50;98908.00;;;2.60
8362;BMP180;4218;48.326;14.304;2022-11-30T09:22:15;98914.00;;;2.50
8362;BMP180;4218;48.326;14.304;2022-11-30T09:24:42;98911.00;;;2.50
8362;BMP180;4218;48.326;14.304;2022-11-30T09:27:07;98909.00;;;2.40
8362;BMP180;4218;48.326;14.304;2022-11-30T09:29:34;98897.00;;;2.30
8362;BMP180;4218;48.326;14.304;2022-11-30T09:32:02;98906.00;;;2.30
8362;BMP180;4218;48.326;14.304;2022-11-30T09:34:27;98918.00;;;2.50
8362;BMP180;4218;48.326;14.304;2022-11-30T09:36:52;98908.00;;;2.40
8362;BMP180;4218;48.326;14.304;2022-11-30T09:39:18;98906.00;;;2.30
8362;BMP180;4218;48.326;14.304;2022-11-30T09:42:23;98904.00;;;2.30
8362;BMP180;4218;48.326;14.304;2022-11-30T09:47:53;98912.00;;;2.50
8362;BMP180;4218;48.326;14.304;2022-11-30T09:50:25;98905.00;;;2.40
8362;BMP180;4218;48.326;14.304;2022-11-30T09:52:54;98901.00;;;2.40
8362;BMP180;4218;48.326;14.304;2022-11-30T09:55:28;98903.00;;;2.50
8362;BMP180;4218;48.326;14.304;2022-11-30T09:58:03;98889.00;;;2.30
8362;BMP180;4218;48.326;14.304;2022-11-30T10:00:29;98904.00;;;2.40
8362;BMP180;4218;48.326;14.304;2022-11-30T10:02:56;98906.00;;;2.50
8362;BMP180;4218;48.326;14.304;2022-11-30T10:05:26;98896.00;;;2.60
8362;BMP180;4218;48.326;14.304;2022-11-30T10:16:34;98899.00;;;2.70
8362;BMP180;4218;48.326;14.304;2022-11-30T10:22:12;98878.00;;;2.70
8362;BMP180;4218;48.326;14.304;2022-11-30T10:25:24;98893.00;;;2.80
8362;BMP180;4218;48.326;14.304;2022-11-30T10:28:05;98883.00;;;2.80
8362;BMP180;4218;48.326;14.304;2022-11-30T10:30:36;98891.00;;;2.90
8362;BMP180;4218;48.326;14.304;2022-11-30T10:33:09;98878.00;;;2.60
8362;BMP180;4218;48.326;14.304;2022-11-30T10:35:40;98884.00;;;2.80
8362;BMP180;4218;48.326;14.304;2022-11-30T10:38:23;98865.00;;;2.60
8362;BMP180;4218;48.326;14.304;2022-11-30T10:40:54;98876.00;;;2.60
8362;BMP180;4218;48.326;14.304;2022-11-30T10:43:35;98860.00;;;2.70
8362;BMP180;4218;48.326;14.304;2022-11-30T10:46:03;98870.00;;;2.80
8362;BMP180;4218;48.326;14.304;2022-11-30T10:48:36;98862.00;;;2.60
8362;BMP180;4218;48.326;14.304;2022-11-30T10:51:05;98856.00;;;2.50
8362;BMP180;4218;48.326;14.304;2022-11-30T10:53:31;98857.00;;;2.30
8362;BMP180;4218;48.326;14.304;2022-11-30T10:58:52;98857.00;;;2.50
8362;BMP180;4218;48.326;14.304;2022-11-30T11:01:36;98851.00;;;2.60
8362;BMP180;4218;48.326;14.304;2022-11-30T11:04:24;98856.00;;;2.50
8362;BMP180;4218;48.326;14.304;2022-11-30T11:06:52;98856.00;;;2.40
8362;BMP180;4218;48.326;14.304;2022-11-30T11:09:39;98855.00;;;2.50
8362;BMP180;4218;48.326;14.304;2022-11-30T11:12:12;98871.00;;;2.40
8362;BMP180;4218;48.326;14.304;2022-11-30T11:14:39;98847.00;;;2.50
8362;BMP180;4218;48.326;14.304;2022-11-30T11:17:24;98857.00;;;2.40
8362;BMP180;4218;48.326;14.304;2022-11-30T11:19:50;98845.00;;;2.30
8362;BMP180;4218;48.326;14.304;2022-11-30T11:22:24;98853.00;;;2.30
8362;BMP180;4218;48.326;14.304;2022-11-30T11:25:05;98852.00;;;2.50
8362;BMP180;4218;48.326;14.304;2022-11-30T11:27:32;98852.00;;;2.60
8362;BMP180;4218;48.326;14.304;2022-11-30T11:30:15;98856.00;;;2.70
8362;BMP180;4218;48.326;14.304;2022-11-30T11:33:03;98841.00;;;2.60
8362;BMP180;4218;48.326;14.304;2022-11-30T11:35:55;98846.00;;;2.40
8362;BMP180;4218;48.326;14.304;2022-11-30T11:38:20;98850.00;;;2.40
8362;BMP180;4218;48.326;14.304;2022-11-30T11:43:51;98857.00;;;2.70
8362;BMP180;4218;48.326;14.304;2022-11-30T11:46:19;98845.00;;;2.70
8362;BMP180;4218;48.326;14.304;2022-11-30T11:48:56;98842.00;;;2.80
8362;BMP180;4218;48.326;14.304;2022-11-30T11:51:36;98844.00;;;3.00
8362;BMP180;4218;48.326;14.304;2022-11-30T11:56:31;98844.00;;;3.00
8362;BMP180;4218;48.326;14.304;2022-11-30T11:59:12;98836.00;;;2.90
8362;BMP180;4218;48.326;14.304;2022-11-30T12:01:47;98832.00;;;3.20
8362;BMP180;4218;48.326;14.304;2022-11-30T12:04:39;98837.00;;;3.00
8362;BMP180;4218;48.326;14.304;2022-11-30T12:07:32;98841.00;;;3.00
8362;BMP180;4218;48.326;14.304;2022-11-30T12:10:05;98850.00;;;3.00
8362;BMP180;4218;48.326;14.304;2022-11-30T12:12:36;98826.00;;;3.20
8362;BMP180;4218;48.326;14.304;2022-11-30T12:15:02;98843.00;;;3.10
8362;BMP180;4218;48.326;14.304;2022-11-30T12:17:45;98839.00;;;2.80
8362;BMP180;4218;48.326;14.304;2022-11-30T12:20:43;98832.00;;;2.80
8362;BMP180;4218;48.326;14.304;2022-11-30T12:28:25;98830.00;;;2.90
8362;BMP180;4218;48.326;14.304;2022-11-30T12:31:11;98829.00;;;3.10
8362;BMP180;4218;48.326;14.304;2022-11-30T12:34:07;98842.00;;;3.30
8362;BMP180;4218;48.326;14.304;2022-11-30T12:39:28;98840.00;;;3.20
8362;BMP180;4218;48.326;14.304;2022-11-30T12:42:00;98842.00;;;3.40
8362;BMP180;4218;48.326;14.304;2022-11-30T12:45:36;98841.00;;;3.40
8362;BMP180;4218;48.326;14.304;2022-11-30T12:58:16;98825.00;;;3.20
8362;BMP180;4218;48.326;14.304;2022-11-30T13:03:47;98823.00;;;3.40
8362;BMP180;4218;48.326;14.304;2022-11-30T13:06:22;98805.00;;;3.50
8362;BMP180;4218;48.326;14.304;2022-11-30T13:11:33;98808.00;;;3.10
8362;BMP180;4218;48.326;14.304;2022-11-30T13:14:01;98802.00;;;3.00
8362;BMP180;4218;48.326;14.304;2022-11-30T13:16:29;98812.00;;;3.00
8362;BMP180;4218;48.326;14.304;2022-11-30T13:21:52;98798.00;;;3.20
8362;BMP180;4218;48.326;14.304;2022-11-30T13:24:36;98814.00;;;3.40
8362;BMP180;4218;48.326;14.304;2022-11-30T13:27:17;98810.00;;;3.30
8362;BMP180;4218;48.326;14.304;2022-11-30T13:32:33;98805.00;;;3.60
8362;BMP180;4218;48.326;14.304;2022-11-30T13:38:13;98814.00;;;3.70
8362;BMP180;4218;48.326;14.304;2022-11-30T13:40:39;98813.00;;;3.70
8362;BMP180;4218;48.326;14.304;2022-11-30T13:43:14;98821.00;;;3.70
8362;BMP180;4218;48.326;14.304;2022-11-30T13:45:40;98817.00;;;3.70
8362;BMP180;4218;48.326;14.304;2022-11-30T13:48:30;98821.00;;;3.70
8362;BMP180;4218;48.326;14.304;2022-11-30T13:50:57;98818.00;;;3.70
8362;BMP180;4218;48.326;14.304;2022-11-30T13:53:29;98821.00;;;3.60
8362;BMP180;4218;48.326;14.304;2022-11-30T13:56:30;98823.00;;;3.60
8362;BMP180;4218;48.326;14.304;2022-11-30T14:01:51;98822.00;;;3.60
8362;BMP180;4218;48.326;14.304;2022-11-30T14:11:58;98814.00;;;3.60
8362;BMP180;4218;48.326;14.304;2022-11-30T14:14:45;98818.00;;;3.40
8362;BMP180;4218;48.326;14.304;2022-11-30T14:17:18;98813.00;;;3.50
8362;BMP180;4218;48.326;14.304;2022-11-30T14:19:45;98807.00;;;3.50
8362;BMP180;4218;48.326;14.304;2022-11-30T14:22:12;98815.00;;;3.50
8362;BMP180;4218;48.326;14.304;2022-11-30T14:24:40;98806.00;;;3.50
8362;BMP180;4218;48.326;14.304;2022-11-30T14:27:14;98809.00;;;3.50
8362;BMP180;4218;48.326;14.304;2022-11-30T14:29:40;98791.00;;;3.50
8362;BMP180;4218;48.326;14.304;2022-11-30T14:32:08;98806.00;;;3.30
8362;BMP180;4218;48.326;14.304;2022-11-30T14:34:39;98798.00;;;3.30
8362;BMP180;4218;48.326;14.304;2022-11-30T14:37:17;98783.00;;;3.20
8362;BMP180;4218;48.326;14.304;2022-11-30T14:39:45;98797.00;;;3.20
8362;BMP180;4218;48.326;14.304;2022-11-30T14:42:22;98786.00;;;3.20
8362;BMP180;4218;48.326;14.304;2022-11-30T14:44:49;98800.00;;;3.20
8362;BMP180;4218;48.326;14.304;2022-11-30T14:47:35;98806.00;;;3.20
8362;BMP180;4218;48.326;14.304;2022-11-30T14:50:02;98802.00;;;3.10
8362;BMP180;4218;48.326;14.304;2022-11-30T14:58:04;98795.00;;;2.80
8362;BMP180;4218;48.326;14.304;2022-11-30T15:00:35;98797.00;;;2.80
8362;BMP180;4218;48.326;14.304;2022-11-30T15:03:02;98803.00;;;2.80
8362;BMP180;4218;48.326;14.304;2022-11-30T15:05:29;98792.00;;;2.70
8362;BMP180;4218;48.326;14.304;2022-11-30T15:07:55;98798.00;;;2.60
8362;BMP180;4218;48.326;14.304;2022-11-30T15:10:30;98803.00;;;2.60
8362;BMP180;4218;48.326;14.304;2022-11-30T15:12:58;98808.00;;;2.60
8362;BMP180;4218;48.326;14.304;2022-11-30T15:15:27;98809.00;;;2.60
8362;BMP180;4218;48.326;14.304;2022-11-30T15:17:56;98809.00;;;2.60
8362;BMP180;4218;48.326;14.304;2022-11-30T15:20:27;98809.00;;;2.70
8362;BMP180;4218;48.326;14.304;2022-11-30T15:22:57;98814.00;;;2.70
8362;BMP180;4218;48.326;14.304;2022-11-30T15:25:29;98814.00;;;2.70
8362;BMP180;4218;48.326;14.304;2022-11-30T15:27:56;98814.00;;;2.50
8362;BMP180;4218;48.326;14.304;2022-11-30T15:30:22;98801.00;;;2.50
8362;BMP180;4218;48.326;14.304;2022-11-30T15:32:49;98815.00;;;2.50
8362;BMP180;4218;48.326;14.304;2022-11-30T15:35:23;98796.00;;;2.60
8362;BMP180;4218;48.326;14.304;2022-11-30T15:37:49;98811.00;;;2.50
8362;BMP180;4218;48.326;14.304;2022-11-30T15:40:35;98809.00;;;2.60
8362;BMP180;4218;48.326;14.304;2022-11-30T15:43:01;98810.00;;;2.50
8362;BMP180;4218;48.326;14.304;2022-11-30T15:45:31;98819.00;;;2.60
8362;BMP180;4218;48.326;14.304;2022-11-30T15:47:58;98812.00;;;2.50
8362;BMP180;4218;48.326;14.304;2022-11-30T15:52:54;98810.00;;;2.60
8362;BMP180;4218;48.326;14.304;2022-11-30T15:55:43;98808.00;;;2.60
8362;BMP180;4218;48.326;14.304;2022-11-30T15:58:35;98804.00;;;2.70
8362;BMP180;4218;48.326;14.304;2022-11-30T16:01:14;98817.00;;;2.60
8362;BMP180;4218;48.326;14.304;2022-11-30T16:06:24;98805.00;;;2.60
8362;BMP180;4218;48.326;14.304;2022-11-30T16:08:50;98797.00;;;2.60
8362;BMP180;4218;48.326;14.304;2022-11-30T16:11:17;98803.00;;;2.60
8362;BMP180;4218;48.326;14.304;2022-11-30T16:13:43;98824.00;;;2.70